الصفحة الرئيسية
METAR-TAF:

METAR-TAF

مطار :

Gaines County Airport

سيمينول, تكساس, الولايات المتحدة

دائرة عرض: 32-40-31N, خط طول: 102-39-09W, ارتفاع: 1010 متر

مراقبة الطقس الحالي

تاريخ ووقت الإصدار 33 دقيقة قبل الساعة 07:15UTC
رياح هادئة
درجة الحرارة 6°درجة مئوية
الرطوبة 81%
ضغط 1027 hPa
الرؤية: 16.1 كم
سماء صافية

METAR: KGNC 210715Z AUTO 00000KT 10SM CLR 06/03 A3033 RMK AO2 T00550027

زمن: 02:48 (07:48 UTC)


TAF: مفقودة

أرصاد الطقس والتوقعات من أكثر من 4000 مطار (تقارير الطقس للمطار METAR والتنبؤ بالطقس بالمطارTAF).

المحطات المتاحة هي النقط الصفراء والحمراء على الخريطة.

حرك المؤشر فوق النقطة لمعرفة اسم المحطة.

ثم انقر لمعرفة أرصاد وتوقعات الطقس.

لتغيير الخارطة: اضغط على الأزرار الخضراء مع رمز الصليب الأسود للتكبير. على الزر الأخضر مع شرطة للتصغير، أو على الأسهم الخضراء للخرائط المجاورة.


METAR-TAF: